aviador You're here:

KALO Decoded Metar

WATERLOO in IA, USA
Report Time2018-06-17 20:54:00
UTC Time2018-06-17 21:42:16
Flight Rules vfr VFR
Wind210° at 20 Gusting to 25 kt
W.Decomp.*RWY 18: 17.8 kt HW 9.1 kt RCW
RWY 24: 16.8 kt HW 10.9 kt LCW
RWY 12: 1.0 kt HW 20.0 kt RCW
W.Rank210° ranks 22
Current wind is above 210° avg. (9.4)
Visibility9999 m
Phenomena:N/A
Clouds:Few 048 Hf
Expected CloudBase > 4,400 ft AGL from Temp-Dew spread
CeilingNone
Temp33°C (ISA +20)
Dew Point22°C (52% RH)
Heat Index36.9°C
AAT30.4°C
QNH1012 hPa
Density Alt3,494 ft
Elevation866 ft
Report Wrong Elevation
Raw Report
KALO 172054Z 21020G25KT 10SM FEW048 33/22 A2989 RMK AO2 PK WND
20026/2028 SLP111 T03330222 56004=

Extra information for KALO:More info

Metar Taf Metar & Taf Last 4 Metars F.Rules Stats Wind Profile Meteogram Temp Stats Airport Information Weather charts Add Link Nearby VenuesMetar ALERT Operation Metar Decoded Social comments

AIRNAV info for KALO